Time;durP1;ratioP1;P1;durP2;ratioP2;P2;SDS_P1;SDS_P2;PMS_P1;PMS_P2;Temp;Humidity;BMP_temperature;BMP_pressure;BME280_temperature;BME280_humidity;BME280_pressure;Samples;Min_cycle;Max_cycle;Signal;HPM_P1;HPM_P2
2020/12/07 00:00:14;;;;;;;37.80;17.17;;;;;;;6.52;79.18;99680.66;4956937;28;20051;-65
2020/12/07 00:02:42;;;;;;;36.63;16.58;;;;;;;6.57;79.23;99683.03;4957076;28;20075;-65
2020/12/07 00:05:08;;;;;;;31.60;15.43;;;;;;;6.61;78.86;99694.94;4956795;28;20050;-64
2020/12/07 00:07:35;;;;;;;27.17;14.68;;;;;;;6.60;78.98;99696.72;4957088;28;20063;-65
2020/12/07 00:10:06;;;;;;;30.35;15.80;;;;;;;6.61;79.02;99693.16;4957051;28;20054;-65
2020/12/07 00:12:32;;;;;;;39.28;14.50;;;;;;;6.58;78.80;99697.69;4957150;28;20047;-64
2020/12/07 00:14:59;;;;;;;21.92;14.85;;;;;;;6.58;78.70;99697.69;4957268;28;20050;-65
2020/12/07 00:17:27;;;;;;;25.35;14.88;;;;;;;6.60;78.83;99696.72;4957052;28;20156;-65
2020/12/07 00:19:54;;;;;;;21.23;14.95;;;;;;;6.61;78.68;99703.59;4956800;28;20047;-65
2020/12/07 00:22:24;;;;;;;27.40;13.65;;;;;;;6.59;78.52;99710.69;4956694;28;20058;-65
2020/12/07 00:24:51;;;;;;;26.88;15.05;;;;;;;6.59;78.74;99708.06;4955638;29;20051;-65
2020/12/07 00:27:29;;;;;;;32.63;13.75;;;;;;;6.58;78.34;99713.34;4954368;28;20428;-65
2020/12/07 00:29:58;;;;;;;49.38;14.93;;;;;;;6.57;78.42;99717.72;4953656;28;20090;-65
2020/12/07 00:32:24;;;;;;;22.85;13.95;;;;;;;6.59;78.36;99717.63;4953788;28;20051;-65
2020/12/07 00:34:51;;;;;;;25.75;14.43;;;;;;;6.59;78.15;99721.09;4953940;28;20061;-65
2020/12/07 00:37:19;;;;;;;18.45;13.90;;;;;;;6.61;78.09;99718.41;4953493;28;20078;-65
2020/12/07 00:39:46;;;;;;;32.38;15.00;;;;;;;6.62;78.18;99720.09;4953598;28;20047;-65
2020/12/07 00:42:12;;;;;;;32.65;14.68;;;;;;;6.63;78.48;99720.00;4953015;28;20052;-65
2020/12/07 00:44:40;;;;;;;41.63;15.20;;;;;;;6.65;78.27;99730.31;4953713;28;20555;-65
2020/12/07 00:47:09;;;;;;;37.30;15.15;;;;;;;6.66;78.06;99727.63;4953918;28;20055;-65
2020/12/07 00:49:36;;;;;;;27.45;14.63;;;;;;;6.67;78.12;99729.31;4954103;28;20047;-65
2020/12/07 00:52:03;;;;;;;30.27;15.57;;;;;;;6.69;77.94;99721.41;4953966;28;20062;-65
2020/12/07 00:54:30;;;;;;;25.27;13.75;;;;;;;6.70;77.89;99723.94;4953781;28;20051;-65
2020/12/07 00:56:59;;;;;;;21.02;14.13;;;;;;;6.70;77.97;99721.34;4953174;28;20531;-65
2020/12/07 00:59:26;;;;;;;24.13;13.35;;;;;;;6.70;77.86;99730.91;4953350;28;20054;-65
2020/12/07 01:01:54;;;;;;;29.15;13.13;;;;;;;6.71;77.79;99743.00;4953138;28;20047;-65
2020/12/07 01:04:20;;;;;;;30.05;14.18;;;;;;;6.71;77.73;99740.41;4953153;28;20381;-65
2020/12/07 01:06:47;;;;;;;18.52;13.48;;;;;;;6.71;77.72;99750.84;4953138;28;20047;-65
2020/12/07 01:09:18;;;;;;;21.90;14.38;;;;;;;6.69;77.53;99748.31;4952902;28;20066;-65
2020/12/07 01:11:45;;;;;;;26.40;14.98;;;;;;;6.69;77.45;99756.16;4952992;28;20058;-65
2020/12/07 01:14:14;;;;;;;25.30;14.75;;;;;;;6.69;77.54;99752.69;4953272;28;20062;-65
2020/12/07 01:16:41;;;;;;;20.67;14.13;;;;;;;6.70;77.38;99760.44;4953003;28;20051;-65
2020/12/07 01:19:08;;;;;;;23.80;14.80;;;;;;;6.70;77.43;99765.66;4952843;28;20054;-65
2020/12/07 01:21:37;;;;;;;26.30;14.13;;;;;;;6.72;77.58;99768.16;4953323;28;20538;-65
2020/12/07 01:24:04;;;;;;;26.30;14.93;;;;;;;6.70;77.69;99757.84;4953077;28;20054;-65
2020/12/07 01:26:31;;;;;;;29.23;15.48;;;;;;;6.72;77.55;99762.94;4952901;28;20047;-65
2020/12/07 01:28:58;;;;;;;29.58;14.77;;;;;;;6.70;77.47;99765.66;4952524;28;20488;-65
2020/12/07 01:31:24;;;;;;;33.15;17.30;;;;;;;6.71;77.62;99771.69;4952523;28;20054;-65
2020/12/07 01:33:50;;;;;;;26.98;16.42;;;;;;;6.73;77.72;99774.22;4951947;29;20054;-65
2020/12/07 01:36:17;;;;;;;32.00;17.48;;;;;;;6.74;77.50;99765.47;4952229;28;20062;-65
2020/12/07 01:38:43;;;;;;;24.35;16.75;;;;;;;6.74;77.67;99778.50;4952643;28;20055;-65
2020/12/07 01:41:09;;;;;;;26.33;15.98;;;;;;;6.73;77.56;99763.78;4952582;28;20055;-65
2020/12/07 01:43:36;;;;;;;31.30;16.77;;;;;;;6.72;77.85;99778.59;4952102;28;20065;-65
2020/12/07 01:46:04;;;;;;;34.83;17.13;;;;;;;6.74;77.68;99786.31;4952460;28;20044;-65
2020/12/07 01:48:32;;;;;;;27.58;17.15;;;;;;;6.74;77.89;99784.53;4952787;28;20056;-65
2020/12/07 01:50:58;;;;;;;34.72;17.20;;;;;;;6.75;77.80;99788.00;4952249;28;20110;-65
2020/12/07 01:53:25;;;;;;;34.38;18.98;;;;;;;6.75;77.78;99796.66;4952293;28;20055;-65
2020/12/07 01:55:53;;;;;;;36.47;17.23;;;;;;;6.75;77.92;99791.44;4952250;28;20051;-65
2020/12/07 01:58:19;;;;;;;30.98;17.33;;;;;;;6.76;78.14;99795.75;4952079;28;20047;-65
2020/12/07 02:00:45;;;;;;;34.72;18.33;;;;;;;6.78;78.10;99795.66;4951981;28;20058;-65
2020/12/07 02:03:12;;;;;;;36.47;17.90;;;;;;;6.78;78.05;99795.66;4951997;28;20057;-65
2020/12/07 02:05:38;;;;;;;31.10;17.73;;;;;;;6.76;78.01;99795.75;4952170;28;20043;-65
2020/12/07 02:08:12;;;;;;;37.55;18.15;;;;;;;6.76;78.12;99797.53;4952000;28;20183;-65
2020/12/07 02:10:39;;;;;;;29.85;18.27;;;;;;;6.76;78.20;99803.56;4951943;28;20515;-65
2020/12/07 02:13:06;;;;;;;30.45;17.15;;;;;;;6.77;78.18;99807.03;4951809;28;20047;-65
2020/12/07 02:15:32;;;;;;;33.90;17.67;;;;;;;6.77;78.24;99820.06;4952055;28;20054;-65
2020/12/07 02:18:00;;;;;;;31.45;18.38;;;;;;;6.76;78.34;99814.00;4952026;28;20465;-65
2020/12/07 02:20:26;;;;;;;28.48;17.45;;;;;;;6.79;78.50;99819.06;4951632;28;20503;-65
2020/12/07 02:22:53;;;;;;;29.00;17.20;;;;;;;6.80;78.23;99823.31;4951989;28;20043;-65
2020/12/07 02:25:19;;;;;;;40.35;18.67;;;;;;;6.81;78.48;99830.22;4951466;28;20062;-65
2020/12/07 02:27:50;;;;;;;30.92;17.95;;;;;;;6.82;78.39;99831.91;4951769;28;20421;-65
2020/12/07 02:30:17;;;;;;;36.13;18.15;;;;;;;6.83;78.38;99824.91;4951846;28;20066;-65
2020/12/07 02:32:45;;;;;;;35.45;18.80;;;;;;;6.83;78.48;99824.91;4951722;28;20047;-65
2020/12/07 02:35:12;;;;;;;33.83;18.15;;;;;;;6.82;78.47;99829.28;4950875;28;20081;-65
2020/12/07 02:37:40;;;;;;;35.50;18.83;;;;;;;6.81;78.44;99825.00;4951356;28;20054;-65
2020/12/07 02:40:07;;;;;;;24.77;16.17;;;;;;;6.80;78.59;99830.31;4951419;28;20074;-65
2020/12/07 02:42:35;;;;;;;25.05;17.08;;;;;;;6.77;78.15;99827.88;4951345;28;20058;-64
2020/12/07 02:45:20;;;;;;;27.80;16.88;;;;;;;6.74;78.44;99828.03;4951483;28;20047;-65
2020/12/07 02:47:46;;;;;;;26.43;16.60;;;;;;;6.72;78.15;99845.53;4951342;28;20047;-65
2020/12/07 02:50:13;;;;;;;32.17;17.73;;;;;;;6.71;78.23;99855.13;4950753;28;20578;-65
2020/12/07 02:52:40;;;;;;;24.48;17.77;;;;;;;6.70;78.29;99863.88;4951620;28;20058;-65
2020/12/07 02:55:08;;;;;;;32.10;16.90;;;;;;;6.72;78.12;99864.63;4951328;28;20412;-65
2020/12/07 02:57:34;;;;;;;25.30;17.00;;;;;;;6.72;78.26;99869.84;4951310;28;20047;-65
2020/12/07 03:00:01;;;;;;;30.98;17.00;;;;;;;6.71;78.30;99868.16;4951330;28;20078;-65
2020/12/07 03:02:27;;;;;;;27.90;17.13;;;;;;;6.72;78.12;99856.81;4951182;28;20507;-65
2020/12/07 03:04:54;;;;;;;23.45;15.90;;;;;;;6.71;78.16;99865.56;4951241;28;20055;-65
2020/12/07 03:07:20;;;;;;;28.90;15.95;;;;;;;6.73;78.29;99868.06;4951043;28;20051;-65
2020/12/07 03:09:46;;;;;;;28.52;16.48;;;;;;;6.72;77.83;99861.16;4951027;28;20063;-65
2020/12/07 03:12:12;;;;;;;31.67;16.38;;;;;;;6.70;77.98;99859.50;4951102;28;20054;-65
2020/12/07 03:14:38;;;;;;;42.03;17.75;;;;;;;6.69;78.12;99852.59;4951150;28;20051;-65
2020/12/07 03:17:04;;;;;;;24.17;16.63;;;;;;;6.67;78.05;99846.63;4950926;28;20047;-65
2020/12/07 03:19:31;;;;;;;32.33;17.80;;;;;;;6.67;78.02;99853.63;4951257;28;20051;-65
2020/12/07 03:21:57;;;;;;;31.55;18.42;;;;;;;6.68;78.25;99853.53;4951027;28;20054;-65
2020/12/07 03:24:23;;;;;;;28.73;19.73;;;;;;;6.69;78.45;99865.66;4950216;28;20078;-65
2020/12/07 03:26:50;;;;;;;31.08;18.85;;;;;;;6.71;78.60;99870.75;4950764;28;20058;-65
2020/12/07 03:29:16;;;;;;;30.67;19.73;;;;;;;6.73;78.25;99881.09;4949997;28;20055;-65
2020/12/07 03:31:42;;;;;;;31.55;19.42;;;;;;;6.74;78.21;99891.44;4950950;28;20048;-65
2020/12/07 03:34:10;;;;;;;31.00;20.20;;;;;;;6.74;78.35;99881.00;4950848;28;20047;-65
2020/12/07 03:36:36;;;;;;;29.73;19.25;;;;;;;6.76;78.30;99888.78;4950724;28;20047;-65
2020/12/07 03:39:04;;;;;;;29.08;19.10;;;;;;;6.76;78.55;99879.19;4951031;28;20055;-65
2020/12/07 03:41:30;;;;;;;27.88;18.83;;;;;;;6.78;78.42;99866.03;4950829;28;20047;-65
2020/12/07 03:43:57;;;;;;;27.50;17.25;;;;;;;6.78;78.33;99863.44;4951026;28;20055;-65
2020/12/07 03:46:23;;;;;;;26.38;17.58;;;;;;;6.77;78.61;99870.44;4950930;28;20052;-65
2020/12/07 03:48:49;;;;;;;26.27;18.10;;;;;;;6.78;78.39;99868.66;4950907;28;20054;-65
2020/12/07 03:51:15;;;;;;;28.10;18.60;;;;;;;6.79;78.58;99876.41;4950901;28;20054;-65
2020/12/07 03:53:42;;;;;;;25.90;17.80;;;;;;;6.78;78.36;99881.69;4950838;28;20416;-65
2020/12/07 03:56:09;;;;;;;25.13;16.90;;;;;;;6.77;78.39;99887.84;4950887;28;20419;-65
2020/12/07 03:58:36;;;;;;;24.67;16.48;;;;;;;6.77;78.47;99886.06;4950711;28;20051;-65
2020/12/07 04:01:04;;;;;;;25.30;16.67;;;;;;;6.77;78.39;99886.06;4950738;28;20044;-65
2020/12/07 04:03:31;;;;;;;20.55;15.27;;;;;;;6.79;78.53;99888.59;4953278;28;20055;-65
2020/12/07 04:08:26;;;;;;;23.05;15.45;;;;;;;6.80;78.56;99883.28;4954170;28;20538;-65
2020/12/07 04:10:52;;;;;;;23.13;15.80;;;;;;;6.81;78.51;99890.19;4954444;28;20488;-65
2020/12/07 04:13:18;;;;;;;23.77;15.93;;;;;;;6.82;78.42;99889.28;4953757;28;20047;-65
2020/12/07 04:15:44;;;;;;;22.52;15.52;;;;;;;6.83;78.52;99888.34;4954126;28;20074;-65
2020/12/07 04:18:26;;;;;;;20.42;13.90;;;;;;;6.84;78.24;99881.34;4954566;28;20126;-65
2020/12/07 04:20:53;;;;;;;21.65;14.85;;;;;;;6.84;78.42;99884.81;4954110;28;20088;-64
2020/12/07 04:23:20;;;;;;;22.65;15.02;;;;;;;6.85;78.19;99890.88;4953770;28;20051;-65
2020/12/07 04:25:46;;;;;;;20.98;14.88;;;;;;;6.87;78.38;99894.25;4954029;28;20055;-65
2020/12/07 04:28:12;;;;;;;22.00;14.73;;;;;;;6.88;78.38;99897.69;4953828;28;20416;-65
2020/12/07 04:30:40;;;;;;;17.90;13.50;;;;;;;6.89;78.29;99905.41;4953960;28;20058;-65
2020/12/07 04:33:07;;;;;;;19.75;13.55;;;;;;;6.89;78.42;99897.59;4954133;28;20051;-65
2020/12/07 04:35:34;;;;;;;19.98;13.82;;;;;;;6.90;78.15;99912.31;4953753;29;20063;-65
2020/12/07 04:38:01;;;;;;;18.92;14.02;;;;;;;6.91;78.40;99903.56;4953715;28;20066;-65
2020/12/07 04:40:28;;;;;;;19.15;13.57;;;;;;;6.91;78.38;99902.72;4953699;28;20395;-65
2020/12/07 04:42:55;;;;;;;17.33;12.75;;;;;;;6.91;78.45;99900.09;4953284;28;20055;-65
2020/12/07 04:45:21;;;;;;;18.70;13.02;;;;;;;6.92;78.33;99899.19;4953627;28;20550;-65
2020/12/07 04:47:51;;;;;;;19.27;12.95;;;;;;;6.91;78.24;99894.91;4953538;28;20058;-66
2020/12/07 04:50:18;;;;;;;16.33;12.30;;;;;;;6.90;78.54;99909.72;4953600;28;20607;-65
2020/12/07 04:52:44;;;;;;;18.10;12.15;;;;;;;6.91;78.55;99907.94;4953305;28;20058;-65
2020/12/07 04:55:10;;;;;;;16.65;11.85;;;;;;;6.91;78.32;99908.78;4953342;28;20500;-65
2020/12/07 04:57:37;;;;;;;16.73;12.35;;;;;;;6.91;78.55;99906.19;4953728;28;20043;-65
2020/12/07 05:00:05;;;;;;;16.70;12.05;;;;;;;6.92;78.44;99907.00;4953182;28;20058;-65
2020/12/07 05:02:36;;;;;;;17.55;12.43;;;;;;;6.91;78.44;99905.31;4953307;28;20047;-65
2020/12/07 05:05:06;;;;;;;18.05;12.60;;;;;;;6.92;78.29;99901.81;4953296;28;20519;-65
2020/12/07 05:07:33;;;;;;;18.80;12.85;;;;;;;6.93;78.45;99908.69;4953523;28;20058;-65
2020/12/07 05:10:07;;;;;;;20.30;13.15;;;;;;;6.94;78.55;99916.44;4953351;28;20775;-65
2020/12/07 05:12:39;;;;;;;18.90;13.25;;;;;;;6.94;78.48;99918.22;4953420;28;20058;-65
2020/12/07 05:15:10;;;;;;;21.20;13.77;;;;;;;6.95;78.53;99919.91;4952829;28;20047;-65
2020/12/07 05:17:38;;;;;;;20.65;14.55;;;;;;;6.96;78.45;99922.41;4953598;28;20102;-65
2020/12/07 05:20:07;;;;;;;22.15;15.35;;;;;;;6.98;78.62;99930.16;4952843;28;20051;-65
2020/12/07 05:22:34;;;;;;;23.50;15.60;;;;;;;6.99;78.70;99931.84;4952930;28;20047;-65
2020/12/07 05:25:05;;;;;;;21.00;14.57;;;;;;;7.00;78.60;99936.13;4952647;28;20051;-65
2020/12/07 05:27:33;;;;;;;22.70;15.68;;;;;;;7.03;78.60;99936.81;4952869;28;20047;-65
2020/12/07 05:30:27;;;;;;;22.70;15.45;;;;;;;7.02;78.56;99927.31;4951911;29;20055;-65
2020/12/07 05:33:01;;;;;;;24.52;16.13;;;;;;;7.02;78.49;99919.47;4952722;28;20047;-65
2020/12/07 05:35:27;;;;;;;23.30;15.90;;;;;;;7.02;78.81;99906.44;4952804;28;20055;-65
2020/12/07 05:37:53;;;;;;;26.38;17.48;;;;;;;7.02;78.66;99916.00;4952644;28;20055;-65
2020/12/07 05:40:19;;;;;;;27.55;17.45;;;;;;;7.00;78.87;99921.31;4952352;28;20071;-65
2020/12/07 05:42:45;;;;;;;26.00;16.88;;;;;;;7.01;78.65;99924.78;4952490;28;20424;-65
2020/12/07 05:45:11;;;;;;;23.05;16.23;;;;;;;7.00;78.94;99936.97;4952605;28;20054;-64
2020/12/07 05:47:39;;;;;;;24.23;17.00;;;;;;;7.00;78.66;99934.38;4952454;28;20047;-64
2020/12/07 05:50:08;;;;;;;23.67;16.58;;;;;;;7.01;78.96;99945.66;4952192;28;20126;-65
2020/12/07 05:52:54;;;;;;;26.48;17.48;;;;;;;7.00;78.91;99929.16;4952139;28;20058;-65
2020/12/07 05:55:21;;;;;;;25.27;17.35;;;;;;;7.00;78.97;99931.75;4952553;28;20062;-65
2020/12/07 05:57:59;;;;;;;27.88;18.02;;;;;;;7.01;78.98;99946.47;4952360;28;20043;-64
2020/12/07 06:00:25;;;;;;;26.73;18.50;;;;;;;7.00;79.10;99944.78;4952350;28;20054;-64
2020/12/07 06:02:54;;;;;;;27.73;19.17;;;;;;;7.00;79.15;99960.44;4952048;28;20415;-65
2020/12/07 06:05:22;;;;;;;28.15;20.40;;;;;;;7.01;79.31;99954.31;4951886;28;20058;-65
2020/12/07 06:08:04;;;;;;;31.00;21.63;;;;;;;7.02;79.19;99966.44;4952158;28;20058;-64
2020/12/07 06:10:36;;;;;;;26.55;19.15;;;;;;;7.03;79.19;99983.78;4951980;28;20055;-65
2020/12/07 06:13:06;;;;;;;24.38;17.73;;;;;;;7.04;79.30;99984.59;4951875;28;20420;-64
2020/12/07 06:15:33;;;;;;;23.42;17.05;;;;;;;7.05;79.35;99988.03;4952335;28;20492;-64
2020/12/07 06:17:59;;;;;;;25.00;17.08;;;;;;;7.06;79.45;99993.19;4951680;28;20066;-64
2020/12/07 06:20:43;;;;;;;25.27;17.33;;;;;;;7.07;79.33;99992.25;4952071;28;20052;-64
2020/12/07 06:23:09;;;;;;;24.30;16.55;;;;;;;7.08;79.30;99998.31;4951522;28;20051;-64
2020/12/07 06:25:43;;;;;;;24.13;17.02;;;;;;;7.08;79.18;99991.34;4951206;28;20055;-65
2020/12/07 06:28:12;;;;;;;25.30;16.02;;;;;;;7.08;79.12;99974.84;4951261;28;20043;-64
2020/12/07 06:30:38;;;;;;;24.77;16.55;;;;;;;7.07;79.28;99983.59;4951826;28;20159;-64
2020/12/07 06:33:08;;;;;;;24.98;16.33;;;;;;;7.07;79.47;99983.59;4951828;28;20054;-64
2020/12/07 06:35:43;;;;;;;22.55;14.90;;;;;;;7.06;79.56;99980.16;4951784;28;20066;-64
2020/12/07 06:38:11;;;;;;;24.55;17.10;;;;;;;7.05;79.50;99981.06;4951857;28;20047;-65
2020/12/07 06:40:38;;;;;;;23.13;15.10;;;;;;;7.06;79.54;99979.28;4952026;28;20500;-65
2020/12/07 06:43:29;;;;;;;21.58;13.90;;;;;;;7.06;79.56;99994.94;4951098;28;20062;-65
2020/12/07 06:45:56;;;;;;;22.45;14.98;;;;;;;7.06;79.60;100000.16;4950842;28;20047;-64
2020/12/07 06:48:24;;;;;;;21.70;14.95;;;;;;;7.06;79.52;99998.41;4951163;28;20047;-65
2020/12/07 06:50:52;;;;;;;21.65;14.93;;;;;;;7.08;79.46;100006.16;4951419;28;20503;-65
2020/12/07 06:55:56;;;;;;;20.83;14.48;;;;;;;7.11;79.46;100000.75;4946842;28;20050;-65
2020/12/07 06:58:38;;;;;;;18.70;12.30;;;;;;;7.09;79.44;100005.25;4951503;28;20055;-65
2020/12/07 07:01:15;;;;;;;19.45;13.27;;;;;;;7.09;79.51;100007.84;4951572;28;20043;-67
2020/12/07 07:03:47;;;;;;;18.38;13.07;;;;;;;7.09;79.31;100024.31;4951213;28;20077;-64
2020/12/07 07:06:19;;;;;;;20.83;13.18;;;;;;;7.11;79.48;100045.09;4950971;28;20058;-66
2020/12/07 07:08:45;;;;;;;20.52;14.60;;;;;;;7.12;79.44;100036.38;4951481;28;20055;-66
2020/12/07 07:11:12;;;;;;;20.52;13.95;;;;;;;7.14;79.30;100024.09;4950980;28;20054;-64
2020/12/07 07:13:38;;;;;;;19.30;13.68;;;;;;;7.13;79.37;100030.22;4951179;28;20048;-66
2020/12/07 07:16:06;;;;;;;19.60;13.80;;;;;;;7.13;79.13;100035.44;4951487;28;20055;-67
2020/12/07 07:18:32;;;;;;;19.30;13.27;;;;;;;7.13;79.39;100030.22;4951162;28;20058;-66
2020/12/07 07:21:03;;;;;;;17.83;12.60;;;;;;;7.12;79.56;100031.16;4951179;28;20424;-66
2020/12/07 07:23:30;;;;;;;17.98;12.40;;;;;;;7.12;79.41;100036.38;4951159;28;20047;-66
2020/12/07 07:26:12;;;;;;;18.42;12.20;;;;;;;7.13;79.43;100046.72;4950798;28;20058;-67
2020/12/07 07:28:39;;;;;;;15.88;11.00;;;;;;;7.13;79.36;100030.22;4950872;28;20500;-66
2020/12/07 07:31:05;;;;;;;15.35;10.88;;;;;;;7.14;79.52;100024.91;4951123;28;20130;-65
2020/12/07 07:33:31;;;;;;;17.67;11.13;;;;;;;7.14;79.29;100016.25;4951121;28;20055;-66
2020/12/07 07:35:57;;;;;;;16.80;11.82;;;;;;;7.14;79.43;100005.81;4951047;28;20054;-65
2020/12/07 07:38:41;;;;;;;14.57;10.82;;;;;;;7.13;79.27;100014.56;4955014;28;20055;-66
2020/12/07 07:41:08;;;;;;;15.18;9.82;;;;;;;7.13;79.15;100025.84;4954771;28;20047;-66
2020/12/07 07:43:34;;;;;;;18.00;11.27;;;;;;;7.14;79.26;100030.13;4954499;29;20062;-66
2020/12/07 07:46:01;;;;;;;15.20;10.88;;;;;;;7.14;79.43;100035.34;4954638;28;20070;-66
2020/12/07 07:48:42;;;;;;;15.95;10.75;;;;;;;7.15;79.37;100029.22;4954745;28;20252;-66
2020/12/07 08:15:48;;;;;;;14.73;9.68;;;;;;;7.31;79.24;100080.56;4954207;28;20047;-66
2020/12/07 08:18:18;;;;;;;13.70;9.80;;;;;;;7.33;79.14;100086.56;4952952;29;20043;-66
2020/12/07 08:20:50;;;;;;;13.77;9.55;;;;;;;7.35;78.91;100113.41;4953898;28;20051;-66
2020/12/07 08:23:16;;;;;;;15.32;9.98;;;;;;;7.37;79.02;100095.09;4953654;28;20719;-68
2020/12/07 08:25:50;;;;;;;13.52;9.68;;;;;;;7.40;78.78;100100.13;4953609;28;20057;-68
2020/12/07 08:28:31;;;;;;;15.48;10.45;;;;;;;7.41;79.09;100107.88;4953893;28;20619;-72
2020/12/07 08:31:18;;;;;;;16.33;11.05;;;;;;;7.46;78.86;100126.72;4953750;28;20093;-68
2020/12/07 08:34:09;;;;;;;16.63;11.68;;;;;;;7.48;79.02;100119.66;4953760;28;20047;-65
2020/12/07 08:36:36;;;;;;;20.83;12.65;;;;;;;7.52;78.86;100131.63;4953718;28;20055;-67
2020/12/07 08:39:04;;;;;;;21.35;13.40;;;;;;;7.54;78.95;100121.09;4953744;28;20051;-65
2020/12/07 08:41:32;;;;;;;20.77;12.98;;;;;;;7.56;78.72;100119.25;4953941;28;20051;-65
2020/12/07 08:44:01;;;;;;;18.65;12.38;;;;;;;7.56;78.43;100113.19;4953304;28;20066;-66
2020/12/07 08:46:30;;;;;;;18.77;12.38;;;;;;;7.58;78.65;100120.03;4953497;28;20047;-64
2020/12/07 08:48:57;;;;;;;18.85;12.85;;;;;;;7.61;78.70;100116.41;4948907;28;20051;-72
2020/12/07 08:51:26;;;;;;;20.70;12.90;;;;;;;7.64;78.45;100127.53;4952724;28;20058;-66
2020/12/07 08:53:53;;;;;;;16.83;11.57;;;;;;;7.68;78.45;100126.44;4950451;29;20043;-71
2020/12/07 08:56:19;;;;;;;16.38;11.32;;;;;;;7.76;78.32;100138.25;4952428;28;20054;-72
2020/12/07 08:58:46;;;;;;;20.95;12.77;;;;;;;7.84;78.33;100147.31;4951733;29;20047;-74
2020/12/07 09:01:13;;;;;;;19.63;13.02;;;;;;;7.99;78.01;100144.78;4948664;29;20246;-68
2020/12/07 09:03:44;;;;;;;17.38;11.52;;;;;;;8.13;77.62;100137.00;4951134;28;20047;-70
2020/12/07 09:06:12;;;;;;;16.90;11.63;;;;;;;8.32;77.48;100130.75;4951870;29;20059;-68
2020/12/07 09:08:43;;;;;;;15.95;11.18;;;;;;;8.53;77.00;100130.47;4951269;29;20047;-71
2020/12/07 09:11:11;;;;;;;16.27;10.98;;;;;;;8.74;76.57;100139.69;4952354;28;20051;-68
2020/12/07 09:13:39;;;;;;;18.10;11.23;;;;;;;8.95;76.20;100149.81;4952129;28;20484;-66
2020/12/07 09:16:06;;;;;;;13.30;10.57;;;;;;;9.11;75.53;100149.75;4952394;28;20047;-66
2020/12/07 09:18:32;;;;;;;12.25;9.00;;;;;;;9.14;75.27;100155.63;4950210;29;20050;-70
2020/12/07 09:20:58;;;;;;;12.27;9.02;;;;;;;9.15;75.08;100159.09;4951967;29;20050;-69
2020/12/07 09:23:26;;;;;;;13.45;9.98;;;;;;;9.23;74.77;100153.38;4950872;29;20777;-76
2020/12/07 09:25:52;;;;;;;16.20;9.90;;;;;;;9.31;74.43;100153.78;4951710;28;20098;-70
2020/12/07 09:28:19;;;;;;;13.07;9.93;;;;;;;9.45;73.87;100145.91;4952057;29;20050;-70
2020/12/07 09:30:46;;;;;;;14.13;9.05;;;;;;;9.55;73.40;100146.19;4952473;28;20043;-70
2020/12/07 09:33:12;;;;;;;13.65;9.20;;;;;;;9.62;73.24;100144.03;4951634;29;20070;-69
2020/12/07 09:35:39;;;;;;;12.18;8.93;;;;;;;9.74;72.79;100139.81;4951265;29;20047;-67
2020/12/07 09:38:05;;;;;;;10.90;7.55;;;;;;;10.00;72.00;100147.78;4952954;29;20051;-67
2020/12/07 09:40:32;;;;;;;11.73;8.00;;;;;;;10.15;71.31;100141.56;4952067;29;20051;-76
2020/12/07 09:43:00;;;;;;;14.07;7.78;;;;;;;10.20;71.16;100139.47;4951132;28;20062;-69
2020/12/07 09:45:27;;;;;;;11.13;7.70;;;;;;;10.24;70.81;100134.88;4951882;29;20495;-71
2020/12/07 09:47:53;;;;;;;11.57;6.82;;;;;;;10.22;70.73;100142.84;4952178;29;20043;-69
2020/12/07 09:50:19;;;;;;;12.07;7.82;;;;;;;10.20;70.25;100149.97;4983231;28;20051;-76
2020/12/07 09:52:45;;;;;;;10.50;6.57;;;;;;;10.13;70.27;100140.81;4952172;29;20488;-71
2020/12/07 09:55:11;;;;;;;9.82;6.57;;;;;;;10.05;70.19;100148.34;4952296;29;20424;-71
2020/12/07 09:57:37;;;;;;;11.65;7.25;;;;;;;9.97;70.13;100146.22;4952153;29;20054;-69
2020/12/07 10:00:05;;;;;;;10.80;7.13;;;;;;;9.89;70.09;100151.94;4947190;28;20050;-72
2020/12/07 10:02:32;;;;;;;11.63;7.25;;;;;;;9.79;70.08;100156.91;4947435;29;20043;-71
2020/12/07 10:04:58;;;;;;;9.52;7.07;;;;;;;9.70;69.73;100157.50;4951566;29;20408;-71
2020/12/07 10:07:25;;;;;;;17.50;7.45;;;;;;;9.66;69.77;100157.78;4951702;29;20054;-69
2020/12/07 10:09:51;;;;;;;9.57;6.93;;;;;;;9.60;69.91;100159.84;4951550;29;20050;-70
2020/12/07 10:12:17;;;;;;;11.70;7.03;;;;;;;9.53;70.13;100169.00;4951460;29;20063;-70
2020/12/07 10:14:44;;;;;;;10.27;7.50;;;;;;;9.45;70.14;100174.72;4951601;29;20063;-70
2020/12/07 10:17:10;;;;;;;9.75;6.85;;;;;;;9.39;70.30;100166.41;4951573;29;20055;-69
2020/12/07 10:19:36;;;;;;;12.80;8.38;;;;;;;9.36;70.55;100170.03;4951714;29;20496;-71
2020/12/07 10:22:06;;;;;;;12.20;8.02;;;;;;;9.31;70.50;100172.94;4951979;28;20487;-74
2020/12/07 10:24:33;;;;;;;12.55;8.52;;;;;;;9.27;70.48;100176.69;4951831;29;20408;-74
2020/12/07 10:27:00;;;;;;;12.95;8.70;;;;;;;9.20;70.55;100175.34;4951522;29;20047;-72
2020/12/07 10:29:27;;;;;;;13.60;5.13;;;;;;;9.28;70.87;100169.66;4951799;29;20065;-67
2020/12/07 10:31:55;;;;;;;11.98;4.95;;;;;;;9.62;72.13;100163.22;4951511;29;20130;-68
2020/12/07 10:34:25;;;;;;;14.93;5.50;;;;;;;9.96;72.19;100166.31;4951539;29;20521;-68
2020/12/07 10:36:52;;;;;;;15.43;5.97;;;;;;;10.26;72.18;100162.69;4951508;29;20063;-75
2020/12/07 10:39:23;;;;;;;15.75;6.75;;;;;;;10.49;71.78;100156.88;4951629;29;20051;-76
2020/12/07 10:41:50;;;;;;;12.32;8.60;;;;;;;10.48;71.10;100170.97;4951626;28;20048;-70
2020/12/07 10:44:16;;;;;;;14.48;9.35;;;;;;;10.29;70.37;100170.34;4948933;28;20055;-69
2020/12/07 10:46:42;;;;;;;12.10;8.32;;;;;;;10.12;70.26;100168.81;4950945;28;20055;-73
2020/12/07 10:49:27;;;;;;;11.75;9.00;;;;;;;9.92;70.06;100175.31;4951033;29;20062;-74
2020/12/07 10:51:53;;;;;;;12.85;10.00;;;;;;;9.78;70.26;100172.72;4950631;29;20492;-74
2020/12/07 10:54:20;;;;;;;13.95;8.80;;;;;;;9.68;70.23;100169.00;4949473;28;20419;-66
2020/12/07 10:56:46;;;;;;;10.77;7.78;;;;;;;9.57;69.98;100162.66;4950185;29;20051;-65
2020/12/07 10:59:12;;;;;;;13.10;9.43;;;;;;;9.50;70.41;100163.97;4948976;29;20047;-66
2020/12/07 11:01:39;;;;;;;21.02;9.55;;;;;;;9.43;70.25;100166.13;4949414;29;20082;-70
2020/12/07 11:04:06;;;;;;;12.35;9.15;;;;;;;9.37;70.49;100163.03;4945057;28;20658;-68
2020/12/07 11:06:35;;;;;;;14.48;9.18;;;;;;;9.32;70.61;100160.69;4950327;29;20039;-73
2020/12/07 11:09:09;;;;;;;13.55;9.32;;;;;;;9.29;70.43;100164.34;4949195;29;20043;-68
2020/12/07 11:11:43;;;;;;;13.75;9.45;;;;;;;9.27;70.79;100179.28;4946837;28;20054;-72
2020/12/07 11:14:09;;;;;;;14.13;8.60;;;;;;;9.24;70.46;100169.03;4949048;29;20047;-71
2020/12/07 11:16:35;;;;;;;11.65;8.45;;;;;;;9.22;70.70;100175.25;4946612;29;20439;-69
2020/12/07 11:19:02;;;;;;;14.10;8.95;;;;;;;9.20;70.57;100177.97;4950551;28;20043;-70
2020/12/07 11:21:28;;;;;;;13.20;9.05;;;;;;;9.19;70.73;100180.69;4948785;29;20054;-70
2020/12/07 11:23:54;;;;;;;12.38;8.60;;;;;;;9.17;70.77;100177.31;4948583;29;20046;-72
2020/12/07 11:26:20;;;;;;;12.40;9.38;;;;;;;9.12;70.71;100173.19;4949699;28;20055;-71
2020/12/07 11:28:47;;;;;;;11.95;9.32;;;;;;;9.11;71.13;100175.91;4949312;28;20047;-69
2020/12/07 11:31:15;;;;;;;12.77;9.10;;;;;;;9.09;70.94;100177.78;4949063;28;20059;-69
2020/12/07 11:33:43;;;;;;;13.55;9.27;;;;;;;9.09;70.88;100183.88;4948908;28;20051;-69
2020/12/07 11:36:15;;;;;;;11.63;7.97;;;;;;;9.10;70.90;100175.09;4948807;28;20063;-72
2020/12/07 11:39:18;;;;;;;11.43;7.70;;;;;;;9.11;70.64;100187.22;4942411;28;20122;-69
2020/12/07 11:41:56;;;;;;;11.07;7.00;;;;;;;9.15;70.72;100177.41;4947448;29;20431;-72
2020/12/07 11:44:22;;;;;;;8.00;6.20;;;;;;;9.16;70.33;100168.63;4944688;29;20051;-69
2020/12/07 11:46:56;;;;;;;5.60;4.00;;;;;;;9.19;70.09;100172.84;4946921;29;20051;-69
2020/12/07 11:49:22;;;;;;;5.68;3.50;;;;;;;9.18;69.20;100181.63;4949650;29;20051;-72
2020/12/07 11:51:49;;;;;;;5.95;3.58;;;;;;;9.19;69.28;100162.38;4949640;28;20047;-68
2020/12/07 11:54:16;;;;;;;4.72;2.38;;;;;;;9.19;68.64;100170.22;4949614;28;20051;-73
2020/12/07 11:56:42;;;;;;;2.67;1.77;;;;;;;9.20;68.34;100177.97;4949049;28;20047;-73
2020/12/07 11:59:09;;;;;;;2.50;1.30;;;;;;;9.20;67.76;100183.22;4949041;28;20051;-68